Time;durP1;ratioP1;P1;durP2;ratioP2;P2;SDS_P1;SDS_P2;PMS_P1;PMS_P2;Temp;Humidity;BMP_temperature;BMP_pressure;BME280_temperature;BME280_humidity;BME280_pressure;Samples;Min_cycle;Max_cycle;Signal;HPM_P1;HPM_P2
2023/03/24 00:02:06;;;;;;;15.95;6.03;;;11.30;99.90;;;;;;5105290;27;20118;-67
2023/03/24 00:04:33;;;;;;;16.38;6.47;;;11.40;99.90;;;;;;5101786;27;20471;-67
2023/03/24 00:07:00;;;;;;;14.23;5.85;;;11.30;99.90;;;;;;5104490;27;20039;-69
2023/03/24 00:09:28;;;;;;;11.52;5.50;;;11.30;99.90;;;;;;5103523;27;20047;-68
2023/03/24 00:11:55;;;;;;;11.52;5.60;;;11.40;99.90;;;;;;5102843;27;20036;-67
2023/03/24 00:14:20;;;;;;;15.02;5.80;;;11.30;99.90;;;;;;5100651;27;20067;-67
2023/03/24 00:16:46;;;;;;;12.48;5.88;;;11.30;99.90;;;;;;5101632;27;20120;-67
2023/03/24 00:19:15;;;;;;;13.20;6.03;;;11.30;99.90;;;;;;5105149;27;20134;-67
2023/03/24 00:21:41;;;;;;;15.52;5.95;;;11.30;99.90;;;;;;5104926;27;20079;-68
2023/03/24 00:24:08;;;;;;;16.23;6.25;;;11.20;99.90;;;;;;5092456;27;20489;-67
2023/03/24 00:26:36;;;;;;;15.43;5.50;;;11.20;99.90;;;;;;5102151;27;20073;-67
2023/03/24 00:29:03;;;;;;;13.40;5.40;;;11.30;99.90;;;;;;5102515;27;20058;-68
2023/03/24 00:31:29;;;;;;;10.80;5.55;;;11.30;99.90;;;;;;5114147;27;20039;-67
2023/03/24 00:33:55;;;;;;;11.68;5.07;;;11.30;99.90;;;;;;5102885;27;20398;-68
2023/03/24 00:36:23;;;;;;;10.90;5.18;;;11.30;99.90;;;;;;5103277;27;20092;-67
2023/03/24 00:38:48;;;;;;;12.07;5.38;;;11.30;99.90;;;;;;5088481;27;20043;-68
2023/03/24 00:41:18;;;;;;;16.25;5.55;;;11.30;99.90;;;;;;5104123;27;20542;-68
2023/03/24 00:43:47;;;;;;;15.30;5.40;;;11.20;99.90;;;;;;5105198;27;20039;-67
2023/03/24 00:46:26;;;;;;;14.48;5.30;;;11.30;99.90;;;;;;5102936;28;20066;-67
2023/03/24 00:49:02;;;;;;;13.50;5.28;;;11.40;99.90;;;;;;5100724;27;20115;-68
2023/03/24 00:51:30;;;;;;;12.95;5.03;;;11.20;99.90;;;;;;5103751;27;20038;-66
2023/03/24 00:53:56;;;;;;;10.50;5.13;;;11.30;99.90;;;;;;5087002;27;20416;-67
2023/03/24 00:56:25;;;;;;;14.13;5.75;;;11.40;99.90;;;;;;5105586;27;20050;-70
2023/03/24 00:58:53;;;;;;;11.05;5.10;;;11.20;99.90;;;;;;5099710;28;20130;-68
2023/03/24 01:01:20;;;;;;;12.52;5.45;;;11.30;99.90;;;;;;5102394;27;20123;-68
2023/03/24 01:03:49;;;;;;;9.93;5.18;;;11.40;99.90;;;;;;5098157;28;20465;-68
2023/03/24 01:06:17;;;;;;;12.70;4.68;;;11.30;99.90;;;;;;5102438;28;20058;-68
2023/03/24 01:08:43;;;;;;;10.68;5.20;;;11.30;99.90;;;;;;5102839;28;20027;-66
2023/03/24 01:11:09;;;;;;;8.73;4.85;;;11.30;99.90;;;;;;5101938;28;20046;-68
2023/03/24 01:13:35;;;;;;;9.13;4.55;;;11.30;99.90;;;;;;5099584;28;20418;-68
2023/03/24 01:16:02;;;;;;;12.02;5.03;;;11.30;99.90;;;;;;5101369;28;20032;-68
2023/03/24 01:18:27;;;;;;;11.35;5.07;;;11.30;99.90;;;;;;5099082;28;20043;-68
2023/03/24 01:20:53;;;;;;;10.55;4.68;;;11.30;99.90;;;;;;5101508;28;20084;-67
2023/03/24 01:23:24;;;;;;;9.95;5.07;;;11.40;99.90;;;;;;5097889;28;20114;-67
2023/03/24 01:25:51;;;;;;;10.93;4.80;;;11.40;99.90;;;;;;5102857;28;20070;-67
2023/03/24 01:28:23;;;;;;;8.80;4.63;;;11.40;99.90;;;;;;5103599;28;20114;-68
2023/03/24 01:30:50;;;;;;;9.52;4.68;;;11.40;99.90;;;;;;5102097;28;20032;-67
2023/03/24 01:33:16;;;;;;;12.75;5.40;;;11.40;99.90;;;;;;5102486;28;20084;-67
2023/03/24 01:35:42;;;;;;;12.55;5.43;;;11.50;99.90;;;;;;5103459;28;20802;-67
2023/03/24 01:38:09;;;;;;;8.90;4.85;;;11.30;99.90;;;;;;5099079;28;20428;-66
2023/03/24 01:40:38;;;;;;;11.13;5.03;;;11.30;99.90;;;;;;5103903;28;20039;-68
2023/03/24 01:43:06;;;;;;;9.43;4.50;;;11.40;99.90;;;;;;5098947;28;20459;-66
2023/03/24 01:45:40;;;;;;;9.25;4.88;;;11.40;99.90;;;;;;5105003;28;20066;-67
2023/03/24 01:48:44;;;;;;;12.88;4.95;;;11.40;99.90;;;;;;5099193;28;20048;-68
2023/03/24 01:51:24;;;;;;;12.18;5.05;;;11.30;99.90;;;;;;5002446;28;20053;-67
2023/03/24 01:54:03;;;;;;;7.88;4.50;;;11.40;99.90;;;;;;5093600;28;20452;-67
2023/03/24 01:56:35;;;;;;;12.82;4.95;;;11.50;99.90;;;;;;5103245;28;20134;-67
2023/03/24 01:59:07;;;;;;;10.30;5.10;;;11.40;99.90;;;;;;5102506;27;20057;-67
2023/03/24 02:01:32;;;;;;;9.17;5.33;;;11.40;99.90;;;;;;5101061;28;20400;-67
2023/03/24 02:04:02;;;;;;;9.05;5.55;;;11.50;99.90;;;;;;5090819;27;20057;-66
2023/03/24 02:06:28;;;;;;;10.23;5.45;;;11.40;99.90;;;;;;5100952;27;20439;-66
2023/03/24 02:08:57;;;;;;;10.00;5.30;;;11.40;99.90;;;;;;5099891;28;20110;-66
2023/03/24 02:11:26;;;;;;;10.55;5.07;;;11.40;99.90;;;;;;5100057;28;20045;-68
2023/03/24 02:13:51;;;;;;;10.90;5.30;;;11.60;99.90;;;;;;5100471;27;20126;-68
2023/03/24 02:16:43;;;;;;;7.45;4.45;;;11.60;99.90;;;;;;5106597;27;20122;-68
2023/03/24 02:19:46;;;;;;;11.00;4.95;;;11.60;99.90;;;;;;5103870;27;20162;-68
2023/03/24 02:22:40;;;;;;;11.68;5.22;;;11.50;99.90;;;;;;5097321;27;20042;-68
2023/03/24 02:25:20;;;;;;;9.15;5.57;;;11.50;99.90;;;;;;5091951;27;20039;-67
2023/03/24 02:27:57;;;;;;;11.27;5.45;;;11.50;99.90;;;;;;5097369;27;20042;-69
2023/03/24 02:31:02;;;;;;;10.02;5.47;;;11.50;99.90;;;;;;5101741;27;20508;-66
2023/03/24 02:33:33;;;;;;;9.65;5.40;;;11.60;99.90;;;;;;5103696;27;20091;-67
2023/03/24 02:36:28;;;;;;;8.45;5.00;;;11.60;99.90;;;;;;5102054;27;20078;-67
2023/03/24 02:38:55;;;;;;;9.25;4.65;;;11.50;99.90;;;;;;5102953;27;20039;-68
2023/03/24 02:41:32;;;;;;;8.05;4.70;;;11.70;99.90;;;;;;5108631;27;20039;-69
2023/03/24 02:44:39;;;;;;;8.63;5.00;;;11.60;99.90;;;;;;5103762;27;20035;-67
2023/03/24 02:47:08;;;;;;;8.68;4.95;;;11.70;99.90;;;;;;5104532;27;20126;-67
2023/03/24 02:49:46;;;;;;;8.55;5.40;;;11.60;99.90;;;;;;5106446;27;20218;-68
2023/03/24 02:52:31;;;;;;;9.07;5.38;;;11.80;99.90;;;;;;5103667;27;20390;-67
2023/03/24 02:55:04;;;;;;;9.13;5.40;;;11.80;99.90;;;;;;5121834;27;20122;-66
2023/03/24 02:57:37;;;;;;;7.68;5.10;;;11.60;99.90;;;;;;5104478;27;20043;-68
2023/03/24 03:00:17;;;;;;;9.60;4.63;;;11.80;99.90;;;;;;5101256;27;20134;-68
2023/03/24 03:02:58;;;;;;;10.52;5.70;;;11.60;99.90;;;;;;5105043;27;20062;-67
2023/03/24 03:05:33;;;;;;;8.52;5.70;;;11.80;99.90;;;;;;5108363;27;20435;-65
2023/03/24 03:08:00;;;;;;;6.60;5.03;;;11.70;99.90;;;;;;5122701;27;20123;-67
2023/03/24 03:10:31;;;;;;;10.05;5.40;;;11.60;99.90;;;;;;5103076;27;20478;-66
2023/03/24 03:13:01;;;;;;;9.13;5.40;;;11.60;99.90;;;;;;5102455;27;20039;-66
2023/03/24 03:15:34;;;;;;;10.95;5.60;;;11.70;99.90;;;;;;5105858;27;20040;-68
2023/03/24 03:18:17;;;;;;;9.70;6.55;;;11.80;99.90;;;;;;5097969;27;20039;-67
2023/03/24 03:20:52;;;;;;;10.05;6.38;;;11.70;99.90;;;;;;5104472;27;20038;-68
2023/03/24 03:23:36;;;;;;;8.32;5.97;;;11.70;99.90;;;;;;5105721;27;20042;-67
2023/03/24 03:26:06;;;;;;;10.32;6.10;;;11.70;99.90;;;;;;5103348;27;20176;-66
2023/03/24 03:28:35;;;;;;;11.48;7.35;;;11.80;99.90;;;;;;5085790;27;20122;-67
2023/03/24 03:31:06;;;;;;;9.50;6.93;;;11.60;99.90;;;;;;5102343;27;20121;-66
2023/03/24 03:33:58;;;;;;;7.75;5.20;;;11.60;99.90;;;;;;5101799;27;20438;-65
2023/03/24 03:36:36;;;;;;;6.90;3.75;;;11.60;99.90;;;;;;5105490;27;20039;-66
2023/03/24 03:39:12;;;;;;;6.00;2.85;;;11.40;99.90;;;;;;5099597;27;20062;-67
2023/03/24 03:41:39;;;;;;;6.18;2.60;;;11.30;99.90;;;;;;5101914;27;21860;-66
2023/03/24 03:44:05;;;;;;;5.75;2.10;;;11.30;99.90;;;;;;5101176;27;20031;-66
2023/03/24 03:46:31;;;;;;;7.00;2.30;;;11.30;99.90;;;;;;5102941;27;20046;-65
2023/03/24 03:48:57;;;;;;;7.22;2.22;;;11.10;99.90;;;;;;5098435;27;20482;-66
2023/03/24 03:51:22;;;;;;;6.05;2.30;;;11.10;99.90;;;;;;5082436;27;20556;-68
2023/03/24 03:53:52;;;;;;;6.07;2.30;;;11.10;99.90;;;;;;5105190;27;20126;-69
2023/03/24 03:56:21;;;;;;;8.68;2.83;;;11.00;99.90;;;;;;5107324;27;20401;-66
2023/03/24 03:58:47;;;;;;;9.60;2.50;;;11.00;99.90;;;;;;5103170;27;20035;-68
2023/03/24 04:01:18;;;;;;;8.18;2.78;;;11.00;99.90;;;;;;5104677;27;20458;-68
2023/03/24 04:04:25;;;;;;;13.00;3.03;;;10.90;99.90;;;;;;5117254;27;20035;-66
2023/03/24 04:07:22;;;;;;;8.63;2.42;;;10.80;99.90;;;;;;5091133;27;20047;-69
2023/03/24 04:09:57;;;;;;;10.48;2.70;;;10.70;99.90;;;;;;5110150;27;20069;-68
2023/03/24 04:12:35;;;;;;;10.30;2.40;;;10.70;99.90;;;;;;5104461;27;20499;-66
2023/03/24 04:15:20;;;;;;;10.40;2.38;;;10.70;99.90;;;;;;5113552;27;20046;-67
2023/03/24 04:17:59;;;;;;;9.63;2.30;;;10.60;99.90;;;;;;5104549;27;20228;-65
2023/03/24 04:20:49;;;;;;;13.63;2.60;;;10.50;99.90;;;;;;5109337;27;20100;-66
2023/03/24 04:23:38;;;;;;;11.15;2.30;;;10.50;99.90;;;;;;5104653;27;21900;-66
2023/03/24 04:26:33;;;;;;;11.38;2.85;;;10.50;99.90;;;;;;5100547;27;20092;-66
2023/03/24 04:29:16;;;;;;;13.95;2.60;;;10.40;99.90;;;;;;5104684;27;20100;-66
2023/03/24 04:32:13;;;;;;;9.57;2.33;;;10.50;99.90;;;;;;5095107;27;20122;-68
2023/03/24 04:34:43;;;;;;;9.82;2.65;;;10.40;99.90;;;;;;5100946;27;20039;-65
2023/03/24 04:37:27;;;;;;;14.40;3.28;;;10.40;99.90;;;;;;5101284;27;20047;-66
2023/03/24 04:39:57;;;;;;;13.02;3.15;;;10.40;99.90;;;;;;5106958;27;20035;-66
2023/03/24 04:42:36;;;;;;;10.98;3.13;;;10.40;99.90;;;;;;5102502;28;20077;-66
2023/03/24 04:45:04;;;;;;;15.00;3.35;;;10.40;99.90;;;;;;5086100;27;20149;-66
2023/03/24 04:47:37;;;;;;;11.55;3.80;;;10.30;99.90;;;;;;5105361;27;20036;-64
2023/03/24 04:50:05;;;;;;;;;;;10.30;99.90;;;;;;5110489;27;20043;-67
2023/03/24 04:52:31;;;;;;;16.17;3.50;;;10.30;99.90;;;;;;5101746;27;19925;-66
2023/03/24 04:54:57;;;;;;;16.33;3.33;;;10.30;99.90;;;;;;5102480;27;20040;-66
2023/03/24 04:57:22;;;;;;;16.83;3.63;;;10.20;99.90;;;;;;5099761;28;20050;-66
2023/03/24 04:59:48;;;;;;;14.80;3.58;;;10.20;99.90;;;;;;5110955;28;20130;-66
2023/03/24 05:02:13;;;;;;;18.95;3.38;;;10.10;99.90;;;;;;5104765;28;20046;-69
2023/03/24 05:04:39;;;;;;;15.70;3.42;;;9.90;99.90;;;;;;5099501;28;20202;-65
2023/03/24 05:07:05;;;;;;;14.60;3.30;;;9.90;99.90;;;;;;5097450;28;20043;-65
2023/03/24 05:09:30;;;;;;;18.75;3.20;;;9.80;99.90;;;;;;5108142;28;20042;-67
2023/03/24 05:11:57;;;;;;;13.00;3.67;;;9.70;99.90;;;;;;5101582;27;20583;-64
2023/03/24 05:14:23;;;;;;;13.80;3.13;;;9.70;99.90;;;;;;5108597;28;20031;-65
2023/03/24 05:16:48;;;;;;;18.13;3.47;;;9.60;99.90;;;;;;5103788;28;20039;-66
2023/03/24 05:19:14;;;;;;;15.32;3.17;;;9.60;99.90;;;;;;5098336;28;20031;-65
2023/03/24 05:21:40;;;;;;;9.80;2.53;;;9.60;99.90;;;;;;5110381;28;20481;-66
2023/03/24 05:24:06;;;;;;;14.50;3.45;;;9.50;99.90;;;;;;5104015;28;20134;-66
2023/03/24 05:26:31;;;;;;;10.35;2.55;;;9.50;99.90;;;;;;5102661;27;20051;-66
2023/03/24 05:28:57;;;;;;;12.18;3.00;;;9.40;99.90;;;;;;5105133;28;20043;-65
2023/03/24 05:31:23;;;;;;;17.35;3.33;;;9.50;99.90;;;;;;5086400;27;20058;-65
2023/03/24 05:33:48;;;;;;;10.60;2.55;;;9.50;99.90;;;;;;5102240;28;20376;-66
2023/03/24 05:36:14;;;;;;;13.90;3.30;;;9.40;99.90;;;;;;5103955;27;20393;-65
2023/03/24 05:38:40;;;;;;;11.30;3.15;;;9.40;99.90;;;;;;5102154;27;20052;-65
2023/03/24 05:41:06;;;;;;;12.95;2.65;;;9.20;99.90;;;;;;5102514;28;20625;-64
2023/03/24 05:43:31;;;;;;;13.25;2.83;;;9.30;99.90;;;;;;5104474;28;20031;-65
2023/03/24 05:45:59;;;;;;;17.10;3.35;;;9.20;99.90;;;;;;5099192;28;20035;-66
2023/03/24 05:48:25;;;;;;;10.50;2.60;;;9.20;99.90;;;;;;5095793;27;20095;-66
2023/03/24 05:50:52;;;;;;;18.05;3.03;;;9.20;99.90;;;;;;5108211;27;20409;-67
2023/03/24 05:53:17;;;;;;;10.63;2.90;;;9.20;99.90;;;;;;5109725;27;20108;-65
2023/03/24 05:55:45;;;;;;;14.05;3.28;;;9.30;99.90;;;;;;5108016;27;20487;-64
2023/03/24 05:58:10;;;;;;;11.15;2.53;;;9.30;99.90;;;;;;5091669;27;20035;-65
2023/03/24 06:00:37;;;;;;;17.50;3.17;;;9.20;99.90;;;;;;5094789;27;20097;-63
2023/03/24 06:03:03;;;;;;;13.52;2.78;;;9.20;99.90;;;;;;5092696;27;20501;-64
2023/03/24 06:05:30;;;;;;;13.68;2.70;;;9.30;99.90;;;;;;5105603;27;20058;-65
2023/03/24 06:07:57;;;;;;;13.52;2.80;;;9.30;99.90;;;;;;5104784;27;20035;-65
2023/03/24 06:10:27;;;;;;;11.30;2.70;;;9.40;99.90;;;;;;5110302;27;20254;-65
2023/03/24 06:12:54;;;;;;;10.68;2.85;;;9.30;99.90;;;;;;5101696;27;20561;-64
2023/03/24 06:15:26;;;;;;;11.57;3.20;;;9.40;99.90;;;;;;5103348;27;20363;-63
2023/03/24 06:17:54;;;;;;;18.67;3.30;;;9.50;99.90;;;;;;5106838;27;20107;-65
2023/03/24 06:20:21;;;;;;;25.67;4.03;;;9.50;99.90;;;;;;5106591;27;20054;-65
2023/03/24 06:22:47;;;;;;;19.67;3.45;;;9.50;99.90;;;;;;5101633;27;20039;-65
2023/03/24 06:25:15;;;;;;;16.75;3.35;;;9.60;99.90;;;;;;5108292;27;20034;-65
2023/03/24 06:27:45;;;;;;;21.13;3.15;;;9.60;99.90;;;;;;5105042;27;20061;-64
2023/03/24 06:30:12;;;;;;;15.20;3.65;;;9.60;99.90;;;;;;5106347;27;20393;-67
2023/03/24 06:32:38;;;;;;;13.18;3.67;;;9.60;99.90;;;;;;5100515;27;20031;-67
2023/03/24 06:35:04;;;;;;;15.35;3.53;;;9.60;99.90;;;;;;5105950;27;20042;-67
2023/03/24 06:37:29;;;;;;;18.10;3.55;;;9.60;99.90;;;;;;5093767;27;20042;-67
2023/03/24 06:39:55;;;;;;;16.90;3.42;;;9.60;99.90;;;;;;5105797;27;20043;-67
2023/03/24 06:42:20;;;;;;;19.40;3.47;;;9.70;99.90;;;;;;5104820;27;20035;-67
2023/03/24 06:44:46;;;;;;;23.17;3.83;;;9.70;99.90;;;;;;5100747;28;20075;-65
2023/03/24 06:47:11;;;;;;;16.15;3.72;;;9.80;99.90;;;;;;5099344;27;20035;-68
2023/03/24 06:49:37;;;;;;;15.80;3.97;;;9.80;99.90;;;;;;5122068;27;20065;-71
2023/03/24 06:52:03;;;;;;;14.88;3.55;;;9.90;99.90;;;;;;5089697;27;20166;-65
2023/03/24 06:54:29;;;;;;;17.00;3.47;;;9.90;99.90;;;;;;5110556;27;20038;-69
2023/03/24 06:56:55;;;;;;;23.30;3.88;;;9.90;99.90;;;;;;5099230;27;20039;-67
2023/03/24 06:59:22;;;;;;;23.83;3.80;;;10.00;99.90;;;;;;5110884;27;20043;-70
2023/03/24 07:01:52;;;;;;;16.33;3.97;;;10.10;99.90;;;;;;5097528;27;20043;-66
2023/03/24 07:04:18;;;;;;;20.67;3.97;;;10.00;99.90;;;;;;5109741;27;20039;-67
2023/03/24 07:06:44;;;;;;;22.00;3.75;;;10.10;99.90;;;;;;5109415;27;20035;-68
2023/03/24 07:09:11;;;;;;;22.85;4.70;;;10.10;99.90;;;;;;5099744;27;20089;-68
2023/03/24 07:11:37;;;;;;;20.83;4.80;;;10.10;99.90;;;;;;5098249;27;20270;-67
2023/03/24 07:14:02;;;;;;;20.42;4.30;;;10.20;99.90;;;;;;5104266;27;20045;-62
2023/03/24 07:16:28;;;;;;;22.90;4.95;;;10.10;99.90;;;;;;5104672;27;20047;-64
2023/03/24 07:18:53;;;;;;;22.58;4.20;;;10.20;99.90;;;;;;5115372;27;20068;-64
2023/03/24 07:21:19;;;;;;;32.13;4.90;;;10.20;99.90;;;;;;5121328;27;20043;-62
2023/03/24 07:23:45;;;;;;;21.20;3.78;;;10.20;99.90;;;;;;5105369;27;20059;-63
2023/03/24 07:26:10;;;;;;;26.95;4.75;;;10.20;99.90;;;;;;5112687;27;20040;-62
2023/03/24 07:28:36;;;;;;;26.08;5.70;;;10.20;99.90;;;;;;5096944;27;20036;-63
2023/03/24 07:31:03;;;;;;;24.77;5.07;;;10.20;99.90;;;;;;5117849;27;20035;-62
2023/03/24 07:33:28;;;;;;;30.77;5.10;;;10.20;99.90;;;;;;5107343;27;20039;-63
2023/03/24 07:35:56;;;;;;;28.45;5.10;;;10.30;99.90;;;;;;5103350;27;20058;-62
2023/03/24 07:38:22;;;;;;;30.20;5.32;;;10.30;99.90;;;;;;5105581;27;20489;-63
2023/03/24 07:40:47;;;;;;;32.10;5.32;;;10.30;99.90;;;;;;5117937;27;20703;-62
2023/03/24 07:43:13;;;;;;;29.98;5.18;;;10.30;99.90;;;;;;5121132;27;20036;-62
2023/03/24 07:45:38;;;;;;;25.17;4.80;;;10.30;99.90;;;;;;5121256;27;20036;-62
2023/03/24 07:48:04;;;;;;;31.33;5.13;;;10.50;99.90;;;;;;5100282;27;20410;-62
2023/03/24 07:50:31;;;;;;;28.73;4.85;;;10.60;99.90;;;;;;5122707;27;20420;-63
2023/03/24 07:52:56;;;;;;;30.63;5.55;;;10.70;99.90;;;;;;5125170;27;20416;-63
2023/03/24 07:55:22;;;;;;;23.73;5.10;;;10.60;99.90;;;;;;5104916;27;20126;-63
2023/03/24 07:57:49;;;;;;;27.83;5.60;;;10.60;99.90;;;;;;5094694;27;20047;-62
2023/03/24 08:00:19;;;;;;;31.17;5.20;;;10.60;99.90;;;;;;5127077;27;20596;-62
2023/03/24 08:02:47;;;;;;;28.27;6.20;;;10.60;99.90;;;;;;5106520;27;20050;-63
2023/03/24 08:05:13;;;;;;;25.95;4.75;;;10.60;99.90;;;;;;5097818;27;20039;-63
2023/03/24 08:07:43;;;;;;;25.33;4.88;;;10.70;99.90;;;;;;5100462;28;20040;-62
2023/03/24 08:10:11;;;;;;;24.55;4.60;;;10.70;99.90;;;;;;5096138;27;20039;-63
2023/03/24 08:12:37;;;;;;;23.90;4.32;;;10.80;99.90;;;;;;5081858;27;20085;-63
2023/03/24 08:15:04;;;;;;;33.42;5.47;;;10.80;99.90;;;;;;5112818;27;20039;-63
2023/03/24 08:17:31;;;;;;;24.58;5.15;;;10.80;99.90;;;;;;5129750;27;20156;-63
2023/03/24 08:19:56;;;;;;;20.13;3.80;;;10.90;99.90;;;;;;5106221;27;20235;-63
2023/03/24 08:22:22;;;;;;;27.63;4.57;;;11.00;99.90;;;;;;5129102;27;20040;-62
2023/03/24 08:24:47;;;;;;;23.05;4.20;;;11.00;99.90;;;;;;5124089;27;20042;-62
2023/03/24 08:27:13;;;;;;;29.60;5.25;;;11.00;99.90;;;;;;5091838;27;20046;-62
2023/03/24 08:29:38;;;;;;;25.40;4.82;;;11.00;99.90;;;;;;5114721;27;20144;-62
2023/03/24 08:32:04;;;;;;;27.88;5.40;;;11.00;99.90;;;;;;5101172;27;20478;-62
2023/03/24 08:34:29;;;;;;;25.45;5.00;;;11.10;99.90;;;;;;5104076;27;20041;-64
2023/03/24 08:36:55;;;;;;;28.35;4.47;;;11.20;99.90;;;;;;5110690;27;20050;-62
2023/03/24 08:39:21;;;;;;;27.13;4.30;;;11.30;99.90;;;;;;5117278;27;20039;-62
2023/03/24 08:41:48;;;;;;;27.85;4.78;;;11.30;99.90;;;;;;5130405;27;20035;-62
2023/03/24 08:44:15;;;;;;;21.38;4.88;;;11.40;99.90;;;;;;5130380;27;20457;-63
2023/03/24 08:46:40;;;;;;;23.83;4.50;;;11.20;99.90;;;;;;5093305;28;20051;-62
2023/03/24 08:49:06;;;;;;;27.92;4.78;;;11.30;99.90;;;;;;5095429;27;20039;-63
2023/03/24 08:51:32;;;;;;;22.98;5.00;;;11.50;99.90;;;;;;5100257;28;20105;-62
2023/03/24 08:53:58;;;;;;;21.77;4.65;;;11.70;99.90;;;;;;5097063;28;20453;-63
2023/03/24 08:56:24;;;;;;;30.65;6.38;;;11.80;99.90;;;;;;5105625;28;20111;-64
2023/03/24 08:58:52;;;;;;;32.90;6.72;;;11.70;99.90;;;;;;5100987;27;20027;-62
2023/03/24 09:01:19;;;;;;;30.40;6.35;;;11.60;99.90;;;;;;5094779;28;20512;-63
2023/03/24 09:03:45;;;;;;;24.25;5.40;;;11.60;99.90;;;;;;5099836;27;20039;-63
2023/03/24 09:06:11;;;;;;;26.63;4.20;;;11.50;99.90;;;;;;5111109;27;20130;-63
2023/03/24 09:08:37;;;;;;;26.00;4.35;;;11.40;99.90;;;;;;5118598;27;20587;-64
2023/03/24 09:11:03;;;;;;;24.83;3.97;;;11.30;99.90;;;;;;5118259;27;20116;-63
2023/03/24 09:13:29;;;;;;;22.15;4.63;;;11.30;99.90;;;;;;5090461;28;20035;-63
2023/03/24 09:15:58;;;;;;;20.98;3.17;;;11.30;99.90;;;;;;5109254;28;20069;-63
2023/03/24 09:18:24;;;;;;;22.90;4.35;;;11.30;99.90;;;;;;5101199;27;20413;-63
2023/03/24 09:20:50;;;;;;;19.67;3.63;;;11.20;99.90;;;;;;5111094;27;20042;-64
2023/03/24 09:23:16;;;;;;;22.88;3.58;;;11.30;99.90;;;;;;5110392;28;20042;-64
2023/03/24 09:25:42;;;;;;;22.05;3.97;;;11.60;99.90;;;;;;5124103;27;20036;-63
2023/03/24 09:28:07;;;;;;;28.13;4.32;;;12.00;99.90;;;;;;5095594;28;20051;-63
2023/03/24 09:30:33;;;;;;;19.55;3.53;;;12.40;99.90;;;;;;5109731;27;20396;-64
2023/03/24 09:32:59;;;;;;;21.23;3.30;;;12.50;99.90;;;;;;5109856;27;20538;-64
2023/03/24 09:35:26;;;;;;;19.30;3.55;;;12.50;99.90;;;;;;5125538;27;20027;-62
2023/03/24 09:37:52;;;;;;;15.27;3.92;;;12.10;99.90;;;;;;5113634;27;20135;-62
2023/03/24 09:40:24;;;;;;;18.83;3.78;;;11.80;99.90;;;;;;5132120;27;20075;-61
2023/03/24 09:43:04;;;;;;;25.70;3.65;;;11.70;99.90;;;;;;5124728;27;20031;-60
2023/03/24 09:45:34;;;;;;;23.20;3.97;;;11.70;99.90;;;;;;5134648;27;20039;-61
2023/03/24 09:48:10;;;;;;;21.45;4.15;;;11.70;99.90;;;;;;5132358;27;20084;-61
2023/03/24 09:50:47;;;;;;;19.90;3.45;;;11.80;99.90;;;;;;5132285;27;20478;-61
2023/03/24 09:53:33;;;;;;;20.08;3.60;;;11.90;99.90;;;;;;5128550;27;20047;-62
2023/03/24 09:56:13;;;;;;;16.73;3.00;;;12.00;99.90;;;;;;5114058;28;20028;-61
2023/03/24 09:58:40;;;;;;;20.73;4.22;;;12.00;99.90;;;;;;5095285;28;20096;-61
2023/03/24 10:01:14;;;;;;;19.50;3.63;;;11.90;99.90;;;;;;5127125;27;20035;-61
2023/03/24 10:03:41;;;;;;;19.05;3.72;;;11.90;99.90;;;;;;5122763;27;20076;-61
2023/03/24 10:06:17;;;;;;;18.45;3.70;;;12.00;99.90;;;;;;5113016;27;20031;-61
2023/03/24 10:08:48;;;;;;;18.70;3.20;;;12.20;99.90;;;;;;5127299;27;20031;-60
2023/03/24 10:11:34;;;;;;;15.48;3.13;;;12.30;99.90;;;;;;5126454;27;20477;-61
2023/03/24 10:14:27;;;;;;;17.17;3.10;;;12.10;99.90;;;;;;5116161;27;20048;-61
2023/03/24 10:17:01;;;;;;;21.05;4.15;;;12.20;99.90;;;;;;5125204;27;21041;-61
2023/03/24 10:19:56;;;;;;;17.98;3.55;;;12.30;99.90;;;;;;5128183;27;20043;-60
2023/03/24 10:22:31;;;;;;;13.93;3.40;;;12.30;99.90;;;;;;5120838;27;20040;-62
2023/03/24 10:25:20;;;;;;;18.98;4.22;;;12.40;99.90;;;;;;5131194;28;20050;-61
2023/03/24 10:27:52;;;;;;;18.38;3.13;;;12.40;99.90;;;;;;5116802;27;20055;-61
2023/03/24 10:30:48;;;;;;;15.35;3.92;;;12.50;99.90;;;;;;5124970;27;20074;-61
2023/03/24 10:33:14;;;;;;;21.35;3.78;;;12.50;99.90;;;;;;5109993;28;20141;-62
2023/03/24 10:35:57;;;;;;;22.23;3.72;;;12.60;99.90;;;;;;5111618;27;20051;-62
2023/03/24 10:38:22;;;;;;;;;;;12.60;99.90;;;;;;5127775;27;20043;-61
2023/03/24 10:40:48;;;;;;;20.48;3.92;;;12.40;99.90;;;;;;5111281;28;19989;-62
2023/03/24 10:43:17;;;;;;;18.73;3.15;;;12.30;99.90;;;;;;5105505;27;20422;-66
2023/03/24 10:45:47;;;;;;;11.98;3.05;;;12.50;99.90;;;;;;5116842;28;20121;-68
2023/03/24 10:48:13;;;;;;;20.05;3.60;;;12.70;99.90;;;;;;5106487;28;20110;-69
2023/03/24 10:50:44;;;;;;;21.80;3.88;;;12.80;99.90;;;;;;5101307;28;20048;-67
2023/03/24 10:53:19;;;;;;;20.40;3.03;;;12.90;99.90;;;;;;5106824;28;20084;-67
2023/03/24 10:55:46;;;;;;;21.23;3.15;;;13.10;99.90;;;;;;5107345;28;20058;-64
2023/03/24 10:58:38;;;;;;;20.48;3.42;;;13.20;99.90;;;;;;5109910;28;20070;-68
2023/03/24 11:01:29;;;;;;;21.50;4.03;;;13.20;99.90;;;;;;5121551;27;20363;-67
2023/03/24 11:04:04;;;;;;;22.33;3.20;;;13.30;99.90;;;;;;5109171;28;20050;-67
2023/03/24 11:06:30;;;;;;;15.25;3.17;;;13.30;99.90;;;;;;5105300;28;20058;-68
2023/03/24 11:09:19;;;;;;;17.40;3.10;;;13.20;99.90;;;;;;5102032;28;20046;-68
2023/03/24 11:11:45;;;;;;;17.17;3.08;;;13.30;99.90;;;;;;5100339;28;20096;-67
2023/03/24 11:14:31;;;;;;;15.18;2.60;;;13.00;99.90;;;;;;5120015;27;20038;-67
2023/03/24 11:17:14;;;;;;;20.73;3.80;;;12.90;99.90;;;;;;5088913;27;1024512;-68
2023/03/24 11:19:53;;;;;;;19.60;4.15;;;13.00;99.90;;;;;;5110061;27;20385;-67
2023/03/24 11:22:19;;;;;;;18.20;3.80;;;13.00;99.90;;;;;;5105427;27;20039;-67
2023/03/24 11:24:51;;;;;;;20.35;4.60;;;13.10;99.90;;;;;;5112031;27;20463;-66
2023/03/24 11:27:18;;;;;;;16.80;3.58;;;13.00;99.90;;;;;;5105341;28;20119;-67
2023/03/24 11:29:48;;;;;;;20.80;3.63;;;12.90;99.90;;;;;;5101311;27;20035;-66
2023/03/24 11:32:28;;;;;;;17.20;3.17;;;12.90;99.90;;;;;;5093271;28;20065;-67
2023/03/24 11:35:06;;;;;;;17.13;3.25;;;12.70;99.90;;;;;;5108243;27;20078;-68
2023/03/24 11:37:36;;;;;;;17.45;3.00;;;13.00;99.90;;;;;;5102559;27;20065;-67
2023/03/24 11:40:21;;;;;;;12.80;3.45;;;13.20;99.90;;;;;;5098979;27;20126;-65
2023/03/24 11:42:57;;;;;;;14.85;3.72;;;13.40;99.90;;;;;;5105148;27;20039;-66
2023/03/24 11:45:34;;;;;;;16.40;3.08;;;13.30;99.90;;;;;;5101819;27;20395;-67
2023/03/24 11:48:03;;;;;;;14.73;2.67;;;13.20;99.90;;;;;;5105292;27;20066;-67
2023/03/24 11:50:31;;;;;;;17.10;3.15;;;13.30;99.90;;;;;;5101469;27;20040;-65
2023/03/24 11:53:20;;;;;;;14.57;3.17;;;13.30;99.90;;;;;;5103134;28;20450;-66
2023/03/24 11:56:35;;;;;;;17.95;2.28;;;13.20;99.90;;;;;;5111621;27;20035;-68
2023/03/24 11:59:13;;;;;;;15.27;3.03;;;12.80;99.90;;;;;;5029692;28;20048;-67
2023/03/24 12:01:49;;;;;;;16.75;2.88;;;12.60;99.90;;;;;;5026014;28;20569;-66
2023/03/24 12:04:23;;;;;;;16.02;3.25;;;12.70;99.90;;;;;;5085343;27;20058;-65
2023/03/24 12:07:23;;;;;;;20.63;3.30;;;12.90;99.90;;;;;;5108664;27;20639;-69
2023/03/24 12:10:12;;;;;;;15.80;3.08;;;13.10;99.90;;;;;;5110862;27;20039;-66
2023/03/24 12:13:06;;;;;;;14.20;3.38;;;13.40;99.90;;;;;;5107925;27;20401;-67
2023/03/24 12:15:56;;;;;;;14.60;2.45;;;13.30;99.90;;;;;;5106944;27;20046;-66
2023/03/24 12:18:37;;;;;;;9.93;2.55;;;13.10;99.90;;;;;;5126982;27;20035;-67
2023/03/24 12:21:25;;;;;;;16.25;2.83;;;13.10;99.90;;;;;;5101715;27;20157;-67
2023/03/24 12:24:00;;;;;;;19.00;2.97;;;13.10;99.90;;;;;;5105305;27;20035;-67
2023/03/24 12:26:28;;;;;;;17.83;3.03;;;13.20;99.90;;;;;;5112424;27;20047;-71
2023/03/24 12:29:04;;;;;;;15.02;2.75;;;13.40;99.90;;;;;;5108072;27;20039;-68
2023/03/24 12:32:12;;;;;;;15.73;2.70;;;13.50;99.90;;;;;;5101907;27;20054;-67
2023/03/24 12:35:22;;;;;;;18.25;3.67;;;13.50;99.90;;;;;;5099115;27;20039;-67
2023/03/24 12:37:53;;;;;;;14.63;3.13;;;13.50;99.90;;;;;;5110468;27;20046;-68
2023/03/24 12:40:24;;;;;;;17.67;3.45;;;13.50;99.90;;;;;;5097227;27;20147;-66
2023/03/24 12:42:59;;;;;;;15.13;3.45;;;13.50;99.90;;;;;;5105440;27;20064;-66
2023/03/24 12:45:42;;;;;;;18.13;3.40;;;13.40;99.90;;;;;;5110136;27;20112;-66
2023/03/24 12:48:38;;;;;;;12.23;3.00;;;13.20;99.90;;;;;;5104017;27;20043;-67
2023/03/24 12:51:20;;;;;;;20.67;3.55;;;13.10;99.90;;;;;;5114715;27;20050;-69
2023/03/24 12:54:10;;;;;;;18.58;2.70;;;12.90;99.90;;;;;;5099868;27;20118;-66
2023/03/24 12:56:46;;;;;;;23.45;3.85;;;12.80;99.90;;;;;;5091076;27;20428;-68
2023/03/24 12:59:16;;;;;;;17.58;4.13;;;12.90;99.90;;;;;;5091486;28;20039;-69
2023/03/24 13:01:45;;;;;;;12.63;3.20;;;12.80;99.90;;;;;;5109787;27;20039;-66
2023/03/24 13:04:20;;;;;;;19.20;3.28;;;12.90;99.90;;;;;;5111408;28;20087;-67
2023/03/24 13:07:00;;;;;;;19.45;3.85;;;13.10;99.90;;;;;;5095536;27;20045;-66